ΕΜΥ, Εθνική Μετεωρολογική Υπηρεσία - Δελτία Καιρού, Προγνώσεις

ΑΕΡΟΝΑΥΤΙΛΙΑ

GREEK AIRPORTS CODES

TAF LGAV 260500Z 2606/2706 01013KT 9999 FEW020 SCT030 PROB40 TEMPO 2609/2706 5000 RA SCT012 FEW018TCU BKN030 PROB30 TEMPO 2609/2706 3000 TSRA SCT010 FEW018CB BKN025 BECMG 2618/2620 VRB03KT BECMG 2703/2705 36013KT=

EUROPEAN AIRPORTS CODES